createdAt,value
2019-02-10T00:00:55.581Z,54.70
2019-02-10T00:03:23.996Z,54.90
2019-02-10T00:05:52.601Z,54.70
2019-02-10T00:08:21.029Z,54.50
2019-02-10T00:10:49.597Z,54.70
2019-02-10T00:13:25.708Z,55.20
2019-02-10T00:15:54.481Z,55.30
2019-02-10T00:18:23.345Z,55.10
2019-02-10T00:20:51.856Z,54.90
2019-02-10T00:23:20.268Z,55.00
2019-02-10T00:25:49.001Z,55.00
2019-02-10T00:28:17.686Z,55.20
2019-02-10T00:30:46.495Z,54.90
2019-02-10T00:33:14.905Z,55.20
2019-02-10T00:35:43.349Z,54.80
2019-02-10T00:38:11.781Z,54.80
2019-02-10T00:40:42.037Z,55.00
2019-02-10T00:43:10.725Z,55.00
2019-02-10T00:45:39.162Z,55.10
2019-02-10T00:48:07.909Z,55.20
2019-02-10T00:50:36.698Z,55.20
2019-02-10T00:53:07.916Z,55.50
2019-02-10T00:55:37.988Z,55.30
2019-02-10T00:58:08.269Z,56.10
2019-02-10T01:00:39.717Z,56.40
2019-02-10T01:03:08.128Z,56.90
2019-02-10T01:05:36.561Z,56.60
2019-02-10T01:08:05.150Z,56.70
2019-02-10T01:10:33.581Z,56.90
2019-02-10T01:13:02.434Z,57.40
2019-02-10T01:15:30.873Z,57.80
2019-02-10T01:17:59.357Z,57.70
2019-02-10T01:20:28.091Z,57.90
2019-02-10T01:22:59.622Z,58.20
2019-02-10T01:25:28.331Z,58.10
2019-02-10T01:27:56.983Z,57.60
2019-02-10T01:30:25.743Z,58.00
2019-02-10T01:32:54.506Z,58.20
2019-02-10T01:35:23.324Z,57.90
2019-02-10T01:37:51.833Z,57.70
2019-02-10T01:40:20.402Z,57.80
2019-02-10T01:42:48.824Z,58.10
2019-02-10T01:45:17.245Z,57.50
2019-02-10T01:47:45.689Z,57.60
2019-02-10T01:50:14.100Z,57.30
2019-02-10T01:52:42.854Z,56.80
2019-02-10T01:55:14.538Z,56.70
2019-02-10T01:57:44.673Z,56.40
2019-02-10T02:00:15.502Z,56.60
2019-02-10T02:02:43.937Z,57.10
2019-02-10T02:05:12.731Z,56.80
2019-02-10T02:07:41.161Z,56.90
2019-02-10T02:10:12.341Z,57.00
2019-02-10T02:12:41.073Z,57.00
2019-02-10T02:15:12.125Z,57.10
2019-02-10T02:17:40.873Z,57.20
2019-02-10T02:20:10.838Z,57.50
2019-02-10T02:22:39.348Z,57.90
2019-02-10T02:25:10.741Z,58.60
2019-02-10T02:27:39.175Z,58.80
2019-02-10T02:30:12.611Z,59.10
2019-02-10T02:32:41.052Z,59.40
2019-02-10T02:35:09.805Z,59.10
2019-02-10T02:37:38.651Z,59.10
2019-02-10T02:40:11.477Z,60.30
2019-02-10T02:42:40.281Z,60.70
2019-02-10T02:45:10.934Z,61.10
2019-02-10T02:47:39.755Z,61.00
2019-02-10T02:50:10.498Z,60.20
2019-02-10T02:52:39.267Z,60.90
2019-02-10T02:55:09.690Z,61.00
2019-02-10T02:57:39.213Z,61.50
2019-02-10T03:00:09.944Z,62.10
2019-02-10T03:02:38.935Z,63.90
2019-02-10T03:05:10.510Z,65.40
2019-02-10T03:07:39.009Z,66.20
2019-02-10T03:10:08.765Z,68.10
2019-02-10T03:12:37.199Z,68.70
2019-02-10T03:15:08.303Z,69.70
2019-02-10T03:17:37.370Z,70.10
2019-02-10T03:20:07.517Z,70.80
2019-02-10T03:22:36.245Z,70.60
2019-02-10T03:25:06.325Z,70.30
2019-02-10T03:27:35.128Z,70.80
2019-02-10T03:30:04.677Z,70.90
2019-02-10T03:32:33.431Z,71.30
2019-02-10T03:35:01.844Z,71.30
2019-02-10T03:37:30.286Z,71.30
2019-02-10T03:39:58.962Z,72.00
2019-02-10T03:42:27.666Z,72.70
2019-02-10T03:44:56.079Z,72.30
2019-02-10T03:47:24.508Z,72.00
2019-02-10T03:49:53.197Z,72.90
2019-02-10T03:52:21.691Z,73.50
2019-02-10T03:54:50.466Z,74.10
2019-02-10T03:57:20.339Z,75.60
2019-02-10T03:59:48.771Z,76.30
2019-02-10T04:02:17.573Z,78.00
2019-02-10T04:04:46.338Z,78.10
2019-02-10T04:07:14.770Z,78.10
2019-02-10T04:09:43.501Z,78.00
2019-02-10T04:12:11.923Z,78.10
2019-02-10T04:14:40.357Z,78.10
2019-02-10T04:17:09.033Z,78.10
2019-02-10T04:19:37.466Z,78.50
2019-02-10T04:22:06.222Z,79.00
2019-02-10T04:24:34.666Z,79.20
2019-02-10T04:27:03.074Z,80.40
2019-02-10T04:29:31.781Z,81.30
2019-02-10T04:32:00.198Z,80.90
2019-02-10T04:34:28.635Z,80.70
2019-02-10T04:36:57.061Z,81.40
2019-02-10T04:39:25.503Z,80.70
2019-02-10T04:41:53.913Z,80.50
2019-02-10T04:44:22.673Z,80.40
2019-02-10T04:46:51.112Z,81.40
2019-02-10T04:49:19.618Z,80.60
2019-02-10T04:51:48.099Z,80.70
2019-02-10T04:54:16.535Z,80.30
2019-02-10T04:56:45.268Z,80.50
2019-02-10T04:59:13.702Z,80.10
2019-02-10T05:01:42.241Z,80.10
2019-02-10T05:04:10.692Z,79.60
2019-02-10T05:06:39.113Z,79.50
2019-02-10T05:09:07.878Z,78.70
2019-02-10T05:11:36.369Z,78.50
2019-02-10T05:14:05.156Z,78.50
2019-02-10T05:16:33.571Z,78.50
2019-02-10T05:19:02.007Z,78.60
2019-02-10T05:21:30.418Z,78.60
2019-02-10T05:24:03.470Z,78.60
2019-02-10T05:26:29.318Z,78.50
2019-02-10T05:28:58.086Z,77.60
2019-02-10T05:31:26.774Z,78.60
2019-02-10T05:33:55.269Z,77.20
2019-02-10T05:36:23.684Z,77.60
2019-02-10T05:38:52.121Z,76.70
2019-02-10T05:41:20.803Z,76.10
2019-02-10T05:43:49.413Z,75.50
2019-02-10T05:46:17.838Z,75.60
2019-02-10T05:48:46.550Z,75.20
2019-02-10T05:51:15.260Z,74.90
2019-02-10T05:53:44.025Z,74.10
2019-02-10T05:56:12.821Z,73.40
2019-02-10T05:58:41.234Z,73.20
2019-02-10T06:01:46.642Z,72.70
2019-02-10T06:04:15.081Z,71.50
2019-02-10T06:06:43.585Z,71.00
2019-02-10T06:09:12.007Z,70.30
2019-02-10T06:11:40.776Z,70.30
2019-02-10T06:14:09.476Z,69.70
2019-02-10T06:16:37.912Z,69.70
2019-02-10T06:19:06.326Z,68.60
2019-02-10T06:21:34.761Z,67.80
2019-02-10T06:24:03.179Z,67.30
2019-02-10T06:26:31.971Z,65.70
2019-02-10T06:29:00.388Z,64.90
2019-02-10T06:31:28.817Z,64.80
2019-02-10T06:33:57.232Z,63.60
2019-02-10T06:36:25.669Z,62.20
2019-02-10T06:38:54.377Z,61.20
2019-02-10T06:41:22.809Z,62.00
2019-02-10T06:43:51.549Z,62.50
2019-02-10T06:46:19.977Z,61.20
2019-02-10T06:48:48.389Z,61.70
2019-02-10T06:51:16.821Z,61.70
2019-02-10T06:53:45.241Z,61.90
2019-02-10T06:56:13.771Z,61.20
2019-02-10T06:58:42.184Z,60.50
2019-02-10T07:01:27.411Z,60.50
2019-02-10T07:03:59.206Z,59.80
2019-02-10T07:06:27.641Z,59.50
2019-02-10T07:08:56.329Z,58.90
2019-02-10T07:11:25.014Z,59.00
2019-02-10T07:13:56.024Z,58.10
2019-02-10T07:16:36.145Z,57.80
2019-02-10T07:19:39.352Z,56.90
2019-02-10T07:22:42.781Z,57.40
2019-02-10T07:25:17.197Z,56.60
2019-02-10T07:28:04.666Z,56.80
2019-02-10T07:30:39.190Z,56.60
2019-02-10T07:33:10.729Z,56.40
2019-02-10T07:35:57.476Z,56.20
2019-02-10T07:38:50.097Z,55.00
2019-02-10T07:41:39.454Z,55.30
2019-02-10T07:44:13.827Z,55.60
2019-02-10T07:47:05.629Z,55.20
2019-02-10T07:49:39.861Z,54.40
2019-02-10T07:52:11.889Z,54.50
2019-02-10T07:55:06.026Z,55.00
2019-02-10T07:57:40.153Z,52.40
2019-02-10T08:00:14.503Z,53.40
2019-02-10T08:03:04.191Z,52.40
2019-02-10T08:05:38.380Z,52.50
2019-02-10T08:08:15.678Z,52.50
2019-02-10T08:10:55.816Z,52.60
2019-02-10T08:13:46.937Z,51.90
2019-02-10T08:16:30.421Z,51.90
2019-02-10T08:19:21.517Z,52.30
2019-02-10T08:21:55.991Z,51.40
2019-02-10T08:24:36.701Z,51.30
2019-02-10T08:27:11.814Z,49.70
2019-02-10T08:29:55.239Z,50.90
2019-02-10T08:32:38.550Z,50.00
2019-02-10T08:35:25.150Z,50.10
2019-02-10T08:38:14.489Z,50.10
2019-02-10T08:40:48.853Z,49.60
2019-02-10T08:43:52.446Z,50.70
2019-02-10T08:46:38.534Z,51.60
2019-02-10T08:49:29.937Z,53.60
2019-02-10T08:52:28.873Z,53.30
2019-02-10T08:54:58.147Z,54.90
2019-02-10T08:57:26.568Z,55.30
2019-02-10T08:59:55.263Z,55.00
2019-02-10T09:02:23.688Z,54.80
2019-02-10T09:04:52.113Z,54.90
2019-02-10T09:07:20.818Z,54.60
2019-02-10T09:09:49.244Z,54.00
2019-02-10T09:12:17.661Z,52.80
2019-02-10T09:14:46.076Z,52.90
2019-02-10T09:17:14.514Z,53.00
2019-02-10T09:19:43.248Z,51.30
2019-02-10T09:22:11.668Z,50.20
2019-02-10T09:24:40.085Z,49.20
2019-02-10T09:27:08.521Z,49.50
2019-02-10T09:29:36.948Z,49.30
2019-02-10T09:32:05.734Z,48.60
2019-02-10T09:34:34.154Z,47.70
2019-02-10T09:37:02.863Z,47.40
2019-02-10T09:39:31.274Z,46.80
2019-02-10T09:42:00.337Z,46.70
2019-02-10T09:44:29.057Z,46.50
2019-02-10T09:46:57.859Z,46.30
2019-02-10T09:49:26.285Z,46.30
2019-02-10T09:51:54.966Z,46.40
2019-02-10T09:54:23.392Z,46.10
2019-02-10T09:56:52.191Z,45.60
2019-02-10T09:59:20.673Z,45.70
2019-02-10T10:01:49.113Z,45.70
2019-02-10T10:04:17.773Z,46.40
2019-02-10T10:06:46.215Z,46.50
2019-02-10T10:09:19.333Z,46.70
2019-02-10T10:11:45.065Z,46.10
2019-02-10T10:14:13.806Z,47.40
2019-02-10T10:16:42.604Z,47.30
2019-02-10T10:19:11.281Z,47.60
2019-02-10T10:21:40.091Z,48.40
2019-02-10T10:24:08.884Z,48.10
2019-02-10T10:26:37.675Z,47.50
2019-02-10T10:29:06.435Z,47.90
2019-02-10T10:31:34.881Z,47.50
2019-02-10T10:34:03.571Z,47.00
2019-02-10T10:36:32.001Z,47.20
2019-02-10T10:39:00.770Z,46.60
2019-02-10T10:41:29.218Z,46.50
2019-02-10T10:43:58.206Z,46.20
2019-02-10T10:46:26.661Z,45.90
2019-02-10T10:48:55.965Z,46.50
2019-02-10T10:51:24.713Z,45.40
2019-02-10T10:53:53.524Z,45.40
2019-02-10T10:56:21.936Z,45.40
2019-02-10T10:58:50.382Z,45.40
2019-02-10T11:01:25.149Z,45.50
2019-02-10T11:03:49.290Z,45.20
2019-02-10T11:06:17.708Z,44.30
2019-02-10T11:08:46.145Z,43.50
2019-02-10T11:11:15.162Z,43.50
2019-02-10T11:13:43.616Z,42.60
2019-02-10T11:16:12.053Z,42.80
2019-02-10T11:18:40.501Z,42.70
2019-02-10T11:21:08.924Z,41.40
2019-02-10T11:23:37.357Z,40.50
2019-02-10T11:26:05.783Z,39.40
2019-02-10T11:28:34.208Z,37.60
2019-02-10T11:31:02.620Z,37.60
2019-02-10T11:33:32.505Z,36.90
2019-02-10T11:36:00.925Z,37.00
2019-02-10T11:38:29.365Z,36.20
2019-02-10T11:40:58.142Z,35.60
2019-02-10T11:43:27.634Z,35.50
2019-02-10T11:45:56.064Z,34.90
2019-02-10T11:48:24.502Z,33.60
2019-02-10T11:51:15.717Z,31.20
2019-02-10T11:53:44.158Z,31.40
2019-02-10T11:56:12.589Z,30.70
2019-02-10T11:58:41.365Z,30.00
2019-02-10T12:01:09.785Z,30.00
2019-02-10T12:03:38.538Z,28.70
2019-02-10T12:06:06.966Z,28.50
2019-02-10T12:08:35.971Z,28.30
2019-02-10T12:11:04.509Z,27.10
2019-02-10T12:13:32.953Z,25.90
2019-02-10T12:16:01.369Z,25.60
2019-02-10T12:18:29.811Z,25.50
2019-02-10T12:20:58.949Z,24.90
2019-02-10T12:23:27.739Z,25.40
2019-02-10T12:25:56.501Z,24.70
2019-02-10T12:28:25.293Z,24.50
2019-02-10T12:30:53.722Z,25.20
2019-02-10T12:33:22.229Z,24.90
2019-02-10T12:35:58.020Z,25.10
2019-02-10T12:38:20.809Z,23.50
2019-02-10T12:40:49.568Z,22.70
2019-02-10T12:43:18.339Z,22.90
2019-02-10T12:45:46.757Z,22.50
2019-02-10T12:48:15.198Z,22.00
2019-02-10T12:50:43.627Z,21.50
2019-02-10T12:53:12.079Z,22.00
2019-02-10T12:55:40.841Z,21.40
2019-02-10T12:58:12.296Z,21.40
2019-02-10T13:00:40.877Z,21.40
2019-02-10T13:03:09.374Z,22.20
2019-02-10T13:05:37.813Z,21.90
2019-02-10T13:08:07.877Z,22.30
2019-02-10T13:10:36.314Z,22.50
2019-02-10T13:13:04.821Z,23.10
2019-02-10T13:15:35.145Z,22.50
2019-02-10T13:18:03.556Z,22.60
2019-02-10T13:20:34.844Z,22.70
2019-02-10T13:23:03.562Z,23.30
2019-02-10T13:25:34.245Z,23.20
2019-02-10T13:28:02.669Z,22.90
2019-02-10T13:30:31.113Z,23.40
2019-02-10T13:32:59.946Z,22.80
2019-02-10T13:35:28.386Z,22.40
2019-02-10T13:37:56.801Z,23.30
2019-02-10T13:40:25.305Z,23.60
2019-02-10T13:42:54.083Z,22.90
2019-02-10T13:45:22.509Z,23.90
2019-02-10T13:47:51.591Z,24.00
2019-02-10T13:50:20.589Z,23.60
2019-02-10T13:52:49.153Z,23.90
2019-02-10T13:55:20.592Z,24.10
2019-02-10T13:57:49.015Z,25.10
2019-02-10T14:00:24.101Z,24.90
2019-02-10T14:02:52.532Z,24.60
2019-02-10T14:05:21.206Z,25.00
2019-02-10T14:07:51.022Z,25.00
2019-02-10T14:10:25.705Z,24.60
2019-02-10T14:12:50.321Z,24.10
2019-02-10T14:15:20.055Z,24.00
2019-02-10T14:17:48.468Z,24.10
2019-02-10T14:20:19.292Z,24.00
2019-02-10T14:22:47.718Z,25.20
2019-02-10T14:25:16.155Z,25.20
2019-02-10T14:27:44.657Z,25.50
2019-02-10T14:30:17.756Z,26.70
2019-02-10T14:32:46.173Z,28.70
2019-02-10T14:35:14.672Z,28.70
2019-02-10T14:37:44.736Z,29.90
2019-02-10T14:40:13.410Z,30.70
2019-02-10T14:42:42.105Z,32.20
2019-02-10T14:45:15.709Z,33.30
2019-02-10T14:47:47.007Z,35.80
2019-02-10T14:50:19.155Z,37.40
2019-02-10T14:52:48.027Z,39.90
2019-02-10T14:55:16.474Z,41.50
2019-02-10T14:57:45.182Z,44.60
2019-02-10T15:00:15.415Z,48.80
2019-02-10T15:02:44.193Z,50.30
2019-02-10T15:05:12.680Z,52.00
2019-02-10T15:07:41.466Z,54.10
2019-02-10T15:10:18.561Z,55.70
2019-02-10T15:12:47.338Z,55.80
2019-02-10T15:15:15.987Z,57.50
2019-02-10T15:17:44.913Z,58.90
2019-02-10T15:20:13.819Z,58.70
2019-02-10T15:22:42.722Z,62.10
2019-02-10T15:25:13.525Z,63.90
2019-02-10T15:27:42.030Z,62.00
2019-02-10T15:30:13.049Z,63.70
2019-02-10T15:32:41.555Z,63.70
2019-02-10T15:35:10.761Z,66.50
2019-02-10T15:37:39.212Z,69.00
2019-02-10T15:40:12.159Z,72.10
2019-02-10T15:42:40.672Z,75.20
2019-02-10T15:45:11.515Z,78.30
2019-02-10T15:47:40.016Z,80.60
2019-02-10T15:50:10.749Z,82.70
2019-02-10T15:52:39.181Z,85.00
2019-02-10T15:55:10.201Z,87.30
2019-02-10T15:57:38.632Z,89.60
2019-02-10T16:00:19.405Z,90.70
2019-02-10T16:02:48.198Z,90.90
2019-02-10T16:05:16.897Z,91.10
2019-02-10T16:07:45.461Z,91.80
2019-02-10T16:10:13.993Z,92.20
2019-02-10T16:12:42.415Z,92.30
2019-02-10T16:15:12.195Z,92.30
2019-02-10T16:17:41.690Z,92.30
2019-02-10T16:20:12.454Z,92.50
2019-02-10T16:22:40.961Z,92.30
2019-02-10T16:25:09.649Z,92.30
2019-02-10T16:27:38.109Z,92.30
2019-02-10T16:30:09.868Z,92.30
2019-02-10T16:32:38.297Z,92.20
2019-02-10T16:35:08.078Z,92.50
2019-02-10T16:37:40.930Z,92.60
2019-02-10T16:40:20.095Z,92.80
2019-02-10T16:42:48.566Z,92.90
2019-02-10T16:45:17.054Z,92.70
2019-02-10T16:47:45.549Z,92.10
2019-02-10T16:50:15.670Z,92.40
2019-02-10T16:52:44.150Z,92.20
2019-02-10T16:55:19.722Z,94.00
2019-02-10T16:57:48.216Z,94.70
2019-02-10T17:00:17.586Z,96.00
2019-02-10T17:02:46.392Z,96.50
2019-02-10T17:05:15.174Z,96.90
2019-02-10T17:07:43.624Z,96.20
2019-02-10T17:10:20.106Z,96.00
2019-02-10T17:12:48.993Z,96.10
2019-02-10T17:15:17.415Z,95.70
2019-02-10T17:17:46.265Z,95.00
2019-02-10T17:20:15.826Z,94.30
2019-02-10T17:22:44.254Z,94.60
2019-02-10T17:25:22.069Z,93.60
2019-02-10T17:27:50.485Z,93.40
2019-02-10T17:30:18.927Z,93.70
2019-02-10T17:32:47.421Z,93.60
2019-02-10T17:35:16.104Z,93.60
2019-02-10T17:37:44.576Z,93.50
2019-02-10T17:40:21.993Z,92.90
2019-02-10T17:42:50.405Z,93.50
2019-02-10T17:45:18.842Z,93.50
2019-02-10T17:47:47.257Z,93.70
2019-02-10T17:50:15.694Z,92.70
2019-02-10T17:52:46.969Z,92.20
2019-02-10T17:55:15.658Z,91.80
2019-02-10T17:57:44.068Z,91.80
2019-02-10T18:00:18.409Z,91.30
2019-02-10T18:02:47.118Z,89.90
2019-02-10T18:05:15.881Z,86.70
2019-02-10T18:07:44.297Z,86.40
2019-02-10T18:10:15.422Z,88.40
2019-02-10T18:12:44.214Z,89.40
2019-02-10T18:15:14.356Z,90.70
2019-02-10T18:17:59.446Z,90.60
2019-02-10T18:20:35.102Z,91.40
2019-02-10T18:23:23.589Z,90.90
2019-02-10T18:26:10.260Z,87.20
2019-02-10T18:28:52.705Z,84.60
2019-02-10T18:31:41.686Z,81.50
2019-02-10T18:34:14.678Z,81.60
2019-02-10T18:36:47.709Z,80.00
2019-02-10T18:39:20.856Z,78.90
2019-02-10T18:41:51.004Z,78.60
2019-02-10T18:44:27.057Z,77.20
2019-02-10T18:47:00.105Z,76.70
2019-02-10T18:49:45.774Z,75.30
2019-02-10T18:52:21.912Z,76.60
2019-02-10T18:54:52.435Z,78.20
2019-02-10T18:57:22.708Z,78.60
2019-02-10T18:59:53.595Z,79.40
2019-02-10T19:02:35.407Z,75.60
2019-02-10T19:05:14.977Z,76.10
2019-02-10T19:07:56.943Z,75.30
2019-02-10T19:10:27.314Z,76.40
2019-02-10T19:12:57.369Z,77.60
2019-02-10T19:15:27.509Z,76.80
2019-02-10T19:18:09.542Z,77.00
2019-02-10T19:20:39.966Z,77.40
2019-02-10T19:23:10.045Z,78.50
2019-02-10T19:25:46.656Z,78.30
2019-02-10T19:28:19.870Z,76.10
2019-02-10T19:30:50.279Z,76.80
2019-02-10T19:33:20.349Z,77.10
2019-02-10T19:35:53.398Z,78.80
2019-02-10T19:38:23.502Z,78.60
2019-02-10T19:41:08.769Z,78.30
2019-02-10T19:43:44.761Z,80.20
2019-02-10T19:46:27.097Z,79.50
2019-02-10T19:49:05.934Z,79.50
2019-02-10T19:51:36.347Z,81.40
2019-02-10T19:54:09.757Z,83.30
2019-02-10T19:56:45.429Z,84.60
2019-02-10T19:59:33.649Z,87.80
2019-02-10T20:02:04.013Z,85.70
2019-02-10T20:04:34.436Z,85.50
2019-02-10T20:07:19.238Z,83.80
2019-02-10T20:09:52.337Z,83.10
2019-02-10T20:12:28.205Z,86.00
2019-02-10T20:14:58.565Z,88.00
2019-02-10T20:17:28.909Z,89.80
2019-02-10T20:19:58.985Z,90.90
2019-02-10T20:22:29.374Z,91.00
2019-02-10T20:24:59.473Z,92.00
2019-02-10T20:27:32.261Z,91.10
2019-02-10T20:30:02.412Z,91.30
2019-02-10T20:32:48.929Z,90.30
2019-02-10T20:35:21.805Z,89.60
2019-02-10T20:37:52.174Z,89.10
2019-02-10T20:40:22.598Z,88.30
2019-02-10T20:42:52.695Z,84.90
2019-02-10T20:45:39.330Z,84.20
2019-02-10T20:48:15.553Z,84.00
2019-02-10T20:51:01.881Z,82.40
2019-02-10T20:53:51.181Z,82.40
2019-02-10T20:56:26.481Z,81.70
2019-02-10T20:58:56.617Z,81.50
2019-02-10T21:01:30.586Z,78.70
2019-02-10T21:04:09.687Z,78.40
2019-02-10T21:06:42.585Z,76.60
2019-02-10T21:09:15.958Z,76.00
2019-02-10T21:12:04.269Z,74.20
2019-02-10T21:14:37.397Z,74.30
2019-02-10T21:17:23.900Z,73.90
2019-02-10T21:20:12.490Z,74.20
2019-02-10T21:22:45.650Z,72.20
2019-02-10T21:25:21.279Z,72.40
2019-02-10T21:28:03.581Z,73.00
2019-02-10T21:30:49.956Z,71.50
2019-02-10T21:33:20.438Z,71.70
2019-02-10T21:35:50.509Z,71.90
2019-02-10T21:38:26.814Z,72.00
2019-02-10T21:41:07.373Z,71.50
2019-02-10T21:43:39.420Z,69.70
2019-02-10T21:46:09.482Z,72.00
2019-02-10T21:48:40.317Z,69.70
2019-02-10T21:51:10.461Z,69.10
2019-02-10T21:53:38.978Z,71.30
2019-02-10T21:56:07.406Z,71.00
2019-02-10T21:58:35.821Z,71.40
2019-02-10T22:01:04.734Z,71.70
2019-02-10T22:03:33.672Z,73.20
2019-02-10T22:06:02.112Z,73.50
2019-02-10T22:08:30.537Z,75.00
2019-02-10T22:10:58.948Z,75.30
2019-02-10T22:13:28.815Z,76.90
2019-02-10T22:15:57.209Z,77.80
2019-02-10T22:18:31.405Z,78.00
2019-02-10T22:21:02.903Z,78.70
2019-02-10T22:23:31.637Z,80.50
2019-02-10T22:26:00.069Z,81.20
2019-02-10T22:28:34.481Z,81.80
2019-02-10T22:31:03.043Z,82.50
2019-02-10T22:33:31.527Z,85.80
2019-02-10T22:36:00.390Z,83.20
2019-02-10T22:38:29.219Z,83.10
2019-02-10T22:40:57.949Z,84.00
2019-02-10T22:43:33.043Z,84.20
2019-02-10T22:46:01.942Z,84.40
2019-02-10T22:48:35.920Z,85.20
2019-02-10T22:51:04.421Z,85.20
2019-02-10T22:53:32.841Z,85.80
2019-02-10T22:56:01.537Z,86.40
2019-02-10T22:58:29.957Z,86.20
2019-02-10T23:01:06.516Z,85.10
2019-02-10T23:03:34.488Z,84.80
2019-02-10T23:06:03.394Z,85.90
2019-02-10T23:08:32.097Z,86.30
2019-02-10T23:11:02.201Z,85.60
2019-02-10T23:13:31.056Z,85.20
2019-02-10T23:15:59.589Z,84.20
2019-02-10T23:18:29.859Z,85.00
2019-02-10T23:21:00.097Z,85.20
2019-02-10T23:23:28.869Z,85.80
2019-02-10T23:25:57.311Z,86.70
2019-02-10T23:28:26.030Z,86.30
2019-02-10T23:30:54.822Z,86.20
2019-02-10T23:33:33.541Z,87.00
2019-02-10T23:36:02.350Z,87.10
2019-02-10T23:38:31.133Z,87.00
2019-02-10T23:40:59.542Z,87.00
2019-02-10T23:43:27.981Z,87.00
2019-02-10T23:45:56.673Z,87.10
2019-02-10T23:48:25.106Z,87.00
2019-02-10T23:50:53.841Z,86.30
2019-02-10T23:53:22.258Z,86.20
2019-02-10T23:55:51.005Z,85.00
2019-02-10T23:58:19.674Z,84.60
